sensor_id;sensor_type;location;lat;lon;timestamp;temperature;humidity
82243;DHT22;71844;51.528;4.442;2023-12-07T00:00:14;2.10;83.90
82243;DHT22;71844;51.528;4.442;2023-12-07T00:02:41;2.10;83.90
82243;DHT22;71844;51.528;4.442;2023-12-07T00:05:08;2.10;83.90
82243;DHT22;71844;51.528;4.442;2023-12-07T00:07:35;2.00;83.90
82243;DHT22;71844;51.528;4.442;2023-12-07T00:10:01;2.00;84.00
82243;DHT22;71844;51.528;4.442;2023-12-07T00:12:28;2.00;84.00
82243;DHT22;71844;51.528;4.442;2023-12-07T00:14:55;2.00;84.00
82243;DHT22;71844;51.528;4.442;2023-12-07T00:17:22;1.90;84.10
82243;DHT22;71844;51.528;4.442;2023-12-07T00:19:50;1.90;84.10
82243;DHT22;71844;51.528;4.442;2023-12-07T00:22:20;1.90;84.10
82243;DHT22;71844;51.528;4.442;2023-12-07T00:24:48;1.90;84.20
82243;DHT22;71844;51.528;4.442;2023-12-07T00:27:15;1.90;84.20
82243;DHT22;71844;51.528;4.442;2023-12-07T00:29:42;1.80;84.20
82243;DHT22;71844;51.528;4.442;2023-12-07T00:32:08;1.80;84.30
82243;DHT22;71844;51.528;4.442;2023-12-07T00:34:35;1.80;84.40
82243;DHT22;71844;51.528;4.442;2023-12-07T00:37:02;1.80;84.40
82243;DHT22;71844;51.528;4.442;2023-12-07T00:39:30;1.80;84.50
82243;DHT22;71844;51.528;4.442;2023-12-07T00:41:56;1.80;84.50
82243;DHT22;71844;51.528;4.442;2023-12-07T00:52:38;1.70;84.70
82243;DHT22;71844;51.528;4.442;2023-12-07T00:55:05;1.70;84.80
82243;DHT22;71844;51.528;4.442;2023-12-07T00:57:38;1.70;84.70
82243;DHT22;71844;51.528;4.442;2023-12-07T01:00:05;1.70;84.70
82243;DHT22;71844;51.528;4.442;2023-12-07T01:02:32;1.70;84.70
82243;DHT22;71844;51.528;4.442;2023-12-07T01:05:00;1.70;84.70
82243;DHT22;71844;51.528;4.442;2023-12-07T01:07:27;1.70;84.80
82243;DHT22;71844;51.528;4.442;2023-12-07T01:09:54;1.60;84.90
82243;DHT22;71844;51.528;4.442;2023-12-07T01:12:20;1.60;84.90
82243;DHT22;71844;51.528;4.442;2023-12-07T01:14:48;1.60;85.00
82243;DHT22;71844;51.528;4.442;2023-12-07T01:17:15;1.60;85.00
82243;DHT22;71844;51.528;4.442;2023-12-07T01:19:41;1.60;85.00
82243;DHT22;71844;51.528;4.442;2023-12-07T01:22:08;1.60;85.00
82243;DHT22;71844;51.528;4.442;2023-12-07T01:24:35;1.60;85.20
82243;DHT22;71844;51.528;4.442;2023-12-07T01:27:02;1.60;85.30
82243;DHT22;71844;51.528;4.442;2023-12-07T01:29:29;1.60;85.30
82243;DHT22;71844;51.528;4.442;2023-12-07T01:31:56;1.60;85.30
82243;DHT22;71844;51.528;4.442;2023-12-07T01:34:22;1.60;85.40
82243;DHT22;71844;51.528;4.442;2023-12-07T01:37:17;1.60;85.50
82243;DHT22;71844;51.528;4.442;2023-12-07T01:42:19;1.50;86.00
82243;DHT22;71844;51.528;4.442;2023-12-07T01:44:54;1.50;86.10
82243;DHT22;71844;51.528;4.442;2023-12-07T01:47:20;1.50;86.20
82243;DHT22;71844;51.528;4.442;2023-12-07T01:49:47;1.50;86.40
82243;DHT22;71844;51.528;4.442;2023-12-07T01:52:16;1.50;86.50
82243;DHT22;71844;51.528;4.442;2023-12-07T01:54:44;1.40;86.50
82243;DHT22;71844;51.528;4.442;2023-12-07T01:57:11;1.50;86.40
82243;DHT22;71844;51.528;4.442;2023-12-07T01:59:37;1.40;86.50
82243;DHT22;71844;51.528;4.442;2023-12-07T02:02:04;1.40;86.50
82243;DHT22;71844;51.528;4.442;2023-12-07T02:04:31;1.30;86.70
82243;DHT22;71844;51.528;4.442;2023-12-07T02:07:00;1.30;86.60
82243;DHT22;71844;51.528;4.442;2023-12-07T02:09:28;1.30;86.70
82243;DHT22;71844;51.528;4.442;2023-12-07T02:11:54;1.30;86.90
82243;DHT22;71844;51.528;4.442;2023-12-07T02:14:21;1.30;86.80
82243;DHT22;71844;51.528;4.442;2023-12-07T02:16:58;1.40;86.90
82243;DHT22;71844;51.528;4.442;2023-12-07T02:22:03;1.40;86.90
82243;DHT22;71844;51.528;4.442;2023-12-07T02:24:33;1.40;87.00
82243;DHT22;71844;51.528;4.442;2023-12-07T02:27:01;1.40;87.00
82243;DHT22;71844;51.528;4.442;2023-12-07T02:29:34;1.50;87.00
82243;DHT22;71844;51.528;4.442;2023-12-07T02:32:07;1.50;86.90
82243;DHT22;71844;51.528;4.442;2023-12-07T02:34:34;1.50;86.90
82243;DHT22;71844;51.528;4.442;2023-12-07T02:37:01;1.50;87.00
82243;DHT22;71844;51.528;4.442;2023-12-07T02:39:30;1.50;87.00
82243;DHT22;71844;51.528;4.442;2023-12-07T02:41:57;1.50;86.80
82243;DHT22;71844;51.528;4.442;2023-12-07T02:44:24;1.40;86.70
82243;DHT22;71844;51.528;4.442;2023-12-07T02:46:51;1.40;86.90
82243;DHT22;71844;51.528;4.442;2023-12-07T02:49:17;1.50;87.00
82243;DHT22;71844;51.528;4.442;2023-12-07T02:51:44;1.50;86.90
82243;DHT22;71844;51.528;4.442;2023-12-07T02:54:11;1.50;87.10
82243;DHT22;71844;51.528;4.442;2023-12-07T02:56:38;1.50;87.10
82243;DHT22;71844;51.528;4.442;2023-12-07T02:59:05;1.50;87.10
82243;DHT22;71844;51.528;4.442;2023-12-07T03:01:32;1.50;87.20
82243;DHT22;71844;51.528;4.442;2023-12-07T03:03:58;1.50;87.20
82243;DHT22;71844;51.528;4.442;2023-12-07T03:06:26;1.50;87.20
82243;DHT22;71844;51.528;4.442;2023-12-07T03:08:52;1.50;87.10
82243;DHT22;71844;51.528;4.442;2023-12-07T03:11:19;1.50;87.40
82243;DHT22;71844;51.528;4.442;2023-12-07T03:13:46;1.50;87.50
82243;DHT22;71844;51.528;4.442;2023-12-07T03:16:13;1.50;87.50
82243;DHT22;71844;51.528;4.442;2023-12-07T03:18:40;1.50;87.60
82243;DHT22;71844;51.528;4.442;2023-12-07T03:21:07;1.60;87.60
82243;DHT22;71844;51.528;4.442;2023-12-07T03:23:34;1.60;87.60
82243;DHT22;71844;51.528;4.442;2023-12-07T03:26:01;1.70;87.40
82243;DHT22;71844;51.528;4.442;2023-12-07T03:28:28;1.70;87.50
82243;DHT22;71844;51.528;4.442;2023-12-07T03:30:55;1.70;87.40
82243;DHT22;71844;51.528;4.442;2023-12-07T03:33:21;1.70;87.50
82243;DHT22;71844;51.528;4.442;2023-12-07T03:35:48;1.70;87.50
82243;DHT22;71844;51.528;4.442;2023-12-07T03:38:15;1.70;87.40
82243;DHT22;71844;51.528;4.442;2023-12-07T03:40:42;1.70;87.50
82243;DHT22;71844;51.528;4.442;2023-12-07T03:43:09;1.80;87.50
82243;DHT22;71844;51.528;4.442;2023-12-07T03:45:36;1.80;87.60
82243;DHT22;71844;51.528;4.442;2023-12-07T03:48:03;1.80;87.50
82243;DHT22;71844;51.528;4.442;2023-12-07T03:50:30;1.80;87.50
82243;DHT22;71844;51.528;4.442;2023-12-07T03:52:57;1.80;87.50
82243;DHT22;71844;51.528;4.442;2023-12-07T03:55:24;1.80;87.40
82243;DHT22;71844;51.528;4.442;2023-12-07T03:57:51;1.80;87.50
82243;DHT22;71844;51.528;4.442;2023-12-07T04:00:18;1.80;87.50
82243;DHT22;71844;51.528;4.442;2023-12-07T04:02:45;1.80;87.70
82243;DHT22;71844;51.528;4.442;2023-12-07T04:05:12;1.80;87.70
82243;DHT22;71844;51.528;4.442;2023-12-07T04:07:40;1.80;87.70
82243;DHT22;71844;51.528;4.442;2023-12-07T04:10:08;1.80;88.00
82243;DHT22;71844;51.528;4.442;2023-12-07T04:12:36;1.80;87.90
82243;DHT22;71844;51.528;4.442;2023-12-07T04:15:03;1.80;88.20
82243;DHT22;71844;51.528;4.442;2023-12-07T04:17:30;1.80;88.00
82243;DHT22;71844;51.528;4.442;2023-12-07T04:19:57;1.80;88.00
82243;DHT22;71844;51.528;4.442;2023-12-07T04:22:24;1.80;88.00
82243;DHT22;71844;51.528;4.442;2023-12-07T04:24:51;1.80;88.10
82243;DHT22;71844;51.528;4.442;2023-12-07T04:27:18;1.80;88.10
82243;DHT22;71844;51.528;4.442;2023-12-07T04:29:45;1.80;88.20
82243;DHT22;71844;51.528;4.442;2023-12-07T04:32:11;1.80;88.10
82243;DHT22;71844;51.528;4.442;2023-12-07T04:34:38;1.80;88.10
82243;DHT22;71844;51.528;4.442;2023-12-07T04:37:05;1.80;88.10
82243;DHT22;71844;51.528;4.442;2023-12-07T04:39:32;1.80;88.20
82243;DHT22;71844;51.528;4.442;2023-12-07T04:41:59;1.90;88.20
82243;DHT22;71844;51.528;4.442;2023-12-07T04:44:26;1.90;88.20
82243;DHT22;71844;51.528;4.442;2023-12-07T04:46:53;1.90;88.20
82243;DHT22;71844;51.528;4.442;2023-12-07T04:49:20;1.90;88.20
82243;DHT22;71844;51.528;4.442;2023-12-07T04:51:47;1.90;88.10
82243;DHT22;71844;51.528;4.442;2023-12-07T04:54:13;1.90;88.10
82243;DHT22;71844;51.528;4.442;2023-12-07T04:56:46;2.00;88.20
82243;DHT22;71844;51.528;4.442;2023-12-07T04:59:13;2.00;88.20
82243;DHT22;71844;51.528;4.442;2023-12-07T05:01:39;1.90;88.20
82243;DHT22;71844;51.528;4.442;2023-12-07T05:04:06;1.90;88.50
82243;DHT22;71844;51.528;4.442;2023-12-07T05:06:34;1.90;88.60
82243;DHT22;71844;51.528;4.442;2023-12-07T05:09:02;1.90;88.50
82243;DHT22;71844;51.528;4.442;2023-12-07T05:11:29;1.90;88.40
82243;DHT22;71844;51.528;4.442;2023-12-07T05:13:56;1.90;88.50
82243;DHT22;71844;51.528;4.442;2023-12-07T05:16:24;2.00;88.50
82243;DHT22;71844;51.528;4.442;2023-12-07T05:18:51;2.00;88.50
82243;DHT22;71844;51.528;4.442;2023-12-07T05:21:18;2.00;88.60
82243;DHT22;71844;51.528;4.442;2023-12-07T05:23:44;2.00;88.40
82243;DHT22;71844;51.528;4.442;2023-12-07T05:26:11;2.00;88.50
82243;DHT22;71844;51.528;4.442;2023-12-07T05:28:38;2.00;88.80
82243;DHT22;71844;51.528;4.442;2023-12-07T05:31:05;2.00;88.70
82243;DHT22;71844;51.528;4.442;2023-12-07T05:33:32;2.00;88.90
82243;DHT22;71844;51.528;4.442;2023-12-07T05:35:59;2.00;88.90
82243;DHT22;71844;51.528;4.442;2023-12-07T05:41:12;2.00;88.80
82243;DHT22;71844;51.528;4.442;2023-12-07T05:43:42;2.00;88.90
82243;DHT22;71844;51.528;4.442;2023-12-07T05:46:12;2.00;88.80
82243;DHT22;71844;51.528;4.442;2023-12-07T05:48:38;2.00;88.80
82243;DHT22;71844;51.528;4.442;2023-12-07T05:51:06;2.10;88.70
82243;DHT22;71844;51.528;4.442;2023-12-07T05:53:38;2.10;88.70
82243;DHT22;71844;51.528;4.442;2023-12-07T05:56:05;2.10;88.80
82243;DHT22;71844;51.528;4.442;2023-12-07T05:58:32;2.10;88.70
82243;DHT22;71844;51.528;4.442;2023-12-07T06:01:00;2.10;88.90
82243;DHT22;71844;51.528;4.442;2023-12-07T06:03:35;2.10;88.90
82243;DHT22;71844;51.528;4.442;2023-12-07T06:06:02;2.10;89.00
82243;DHT22;71844;51.528;4.442;2023-12-07T06:08:29;2.10;88.90
82243;DHT22;71844;51.528;4.442;2023-12-07T06:10:56;2.10;88.90
82243;DHT22;71844;51.528;4.442;2023-12-07T06:13:23;2.10;88.90
82243;DHT22;71844;51.528;4.442;2023-12-07T06:15:50;2.10;89.00
82243;DHT22;71844;51.528;4.442;2023-12-07T06:18:17;2.10;89.30
82243;DHT22;71844;51.528;4.442;2023-12-07T06:20:47;2.10;89.20
82243;DHT22;71844;51.528;4.442;2023-12-07T06:23:13;2.10;89.40
82243;DHT22;71844;51.528;4.442;2023-12-07T06:25:40;2.10;89.30
82243;DHT22;71844;51.528;4.442;2023-12-07T06:28:08;2.10;89.30
82243;DHT22;71844;51.528;4.442;2023-12-07T06:30:34;2.10;89.20
82243;DHT22;71844;51.528;4.442;2023-12-07T06:33:01;2.20;89.40
82243;DHT22;71844;51.528;4.442;2023-12-07T06:35:28;2.20;89.30
82243;DHT22;71844;51.528;4.442;2023-12-07T06:37:55;2.20;89.30
82243;DHT22;71844;51.528;4.442;2023-12-07T06:40:22;2.20;89.30
82243;DHT22;71844;51.528;4.442;2023-12-07T06:42:49;2.20;89.20
82243;DHT22;71844;51.528;4.442;2023-12-07T06:45:16;2.20;89.20
82243;DHT22;71844;51.528;4.442;2023-12-07T06:47:43;2.20;89.10
82243;DHT22;71844;51.528;4.442;2023-12-07T06:50:10;2.20;89.10
82243;DHT22;71844;51.528;4.442;2023-12-07T06:52:37;2.20;89.10
82243;DHT22;71844;51.528;4.442;2023-12-07T06:55:05;2.30;89.10
82243;DHT22;71844;51.528;4.442;2023-12-07T06:57:32;2.30;89.10
82243;DHT22;71844;51.528;4.442;2023-12-07T07:00:00;2.30;89.00
82243;DHT22;71844;51.528;4.442;2023-12-07T07:02:28;2.30;89.10
82243;DHT22;71844;51.528;4.442;2023-12-07T07:04:54;2.30;89.00
82243;DHT22;71844;51.528;4.442;2023-12-07T07:07:22;2.30;89.10
82243;DHT22;71844;51.528;4.442;2023-12-07T07:10:16;2.30;89.10
82243;DHT22;71844;51.528;4.442;2023-12-07T07:12:43;2.30;89.10
82243;DHT22;71844;51.528;4.442;2023-12-07T07:15:10;2.30;89.30
82243;DHT22;71844;51.528;4.442;2023-12-07T07:17:37;2.20;89.30
82243;DHT22;71844;51.528;4.442;2023-12-07T07:20:04;2.30;89.30
82243;DHT22;71844;51.528;4.442;2023-12-07T07:22:31;2.30;89.30
82243;DHT22;71844;51.528;4.442;2023-12-07T07:24:58;2.30;89.20
82243;DHT22;71844;51.528;4.442;2023-12-07T07:27:24;2.30;89.20
82243;DHT22;71844;51.528;4.442;2023-12-07T07:29:52;2.30;89.30
82243;DHT22;71844;51.528;4.442;2023-12-07T07:32:19;2.30;89.40
82243;DHT22;71844;51.528;4.442;2023-12-07T07:34:45;2.30;89.30
82243;DHT22;71844;51.528;4.442;2023-12-07T07:37:12;2.30;89.30
82243;DHT22;71844;51.528;4.442;2023-12-07T07:39:39;2.30;89.40
82243;DHT22;71844;51.528;4.442;2023-12-07T07:42:06;2.30;89.40
82243;DHT22;71844;51.528;4.442;2023-12-07T07:44:33;2.30;89.50
82243;DHT22;71844;51.528;4.442;2023-12-07T07:47:00;2.30;89.50
82243;DHT22;71844;51.528;4.442;2023-12-07T07:49:26;2.30;89.40
82243;DHT22;71844;51.528;4.442;2023-12-07T07:51:53;2.20;89.60
82243;DHT22;71844;51.528;4.442;2023-12-07T07:54:20;2.30;89.60
82243;DHT22;71844;51.528;4.442;2023-12-07T07:56:47;2.30;89.70
82243;DHT22;71844;51.528;4.442;2023-12-07T07:59:15;2.30;89.60
82243;DHT22;71844;51.528;4.442;2023-12-07T08:01:42;2.30;89.60
82243;DHT22;71844;51.528;4.442;2023-12-07T08:04:09;2.30;89.60
82243;DHT22;71844;51.528;4.442;2023-12-07T08:06:37;2.30;89.70
82243;DHT22;71844;51.528;4.442;2023-12-07T08:09:04;2.30;89.80
82243;DHT22;71844;51.528;4.442;2023-12-07T08:11:31;2.30;89.80
82243;DHT22;71844;51.528;4.442;2023-12-07T08:13:59;2.40;89.70
82243;DHT22;71844;51.528;4.442;2023-12-07T08:16:26;2.40;89.70
82243;DHT22;71844;51.528;4.442;2023-12-07T08:18:54;2.40;89.70
82243;DHT22;71844;51.528;4.442;2023-12-07T08:21:22;2.40;89.70
82243;DHT22;71844;51.528;4.442;2023-12-07T08:23:55;2.40;89.60
82243;DHT22;71844;51.528;4.442;2023-12-07T08:26:22;2.50;89.70
82243;DHT22;71844;51.528;4.442;2023-12-07T08:28:48;2.50;89.70
82243;DHT22;71844;51.528;4.442;2023-12-07T08:31:16;2.50;89.60
82243;DHT22;71844;51.528;4.442;2023-12-07T08:33:44;2.50;89.60
82243;DHT22;71844;51.528;4.442;2023-12-07T08:36:11;2.50;89.60
82243;DHT22;71844;51.528;4.442;2023-12-07T08:38:38;2.60;89.60
82243;DHT22;71844;51.528;4.442;2023-12-07T08:41:05;2.60;89.70
82243;DHT22;71844;51.528;4.442;2023-12-07T08:43:32;2.60;89.90
82243;DHT22;71844;51.528;4.442;2023-12-07T08:45:58;2.70;89.80
82243;DHT22;71844;51.528;4.442;2023-12-07T08:48:27;2.80;89.90
82243;DHT22;71844;51.528;4.442;2023-12-07T08:50:54;2.80;89.80
82243;DHT22;71844;51.528;4.442;2023-12-07T08:53:21;2.90;89.80
82243;DHT22;71844;51.528;4.442;2023-12-07T08:55:48;2.90;89.90
82243;DHT22;71844;51.528;4.442;2023-12-07T08:58:15;3.00;90.00
82243;DHT22;71844;51.528;4.442;2023-12-07T09:00:42;3.10;90.10
82243;DHT22;71844;51.528;4.442;2023-12-07T09:03:10;3.20;89.90
82243;DHT22;71844;51.528;4.442;2023-12-07T09:05:36;3.30;89.70
82243;DHT22;71844;51.528;4.442;2023-12-07T09:08:03;3.40;89.70
82243;DHT22;71844;51.528;4.442;2023-12-07T09:10:30;3.40;89.40
82243;DHT22;71844;51.528;4.442;2023-12-07T09:12:57;3.40;88.90
82243;DHT22;71844;51.528;4.442;2023-12-07T09:15:24;3.40;88.80
82243;DHT22;71844;51.528;4.442;2023-12-07T09:17:51;3.40;88.60
82243;DHT22;71844;51.528;4.442;2023-12-07T09:20:18;3.40;88.80
82243;DHT22;71844;51.528;4.442;2023-12-07T09:22:46;3.40;88.90
82243;DHT22;71844;51.528;4.442;2023-12-07T09:25:15;3.40;89.00
82243;DHT22;71844;51.528;4.442;2023-12-07T09:27:42;3.40;89.10
82243;DHT22;71844;51.528;4.442;2023-12-07T09:30:10;3.50;89.30
82243;DHT22;71844;51.528;4.442;2023-12-07T09:32:42;3.50;89.20
82243;DHT22;71844;51.528;4.442;2023-12-07T09:35:11;3.50;88.90
82243;DHT22;71844;51.528;4.442;2023-12-07T09:37:46;3.50;88.80
82243;DHT22;71844;51.528;4.442;2023-12-07T09:40:17;3.60;88.80
82243;DHT22;71844;51.528;4.442;2023-12-07T09:42:45;3.60;88.80
82243;DHT22;71844;51.528;4.442;2023-12-07T09:45:13;3.60;89.00
82243;DHT22;71844;51.528;4.442;2023-12-07T09:47:43;3.70;88.70
82243;DHT22;71844;51.528;4.442;2023-12-07T09:50:12;3.70;88.20
82243;DHT22;71844;51.528;4.442;2023-12-07T09:52:42;3.70;88.40
82243;DHT22;71844;51.528;4.442;2023-12-07T09:55:19;3.70;88.60
82243;DHT22;71844;51.528;4.442;2023-12-07T09:57:46;3.80;88.20
82243;DHT22;71844;51.528;4.442;2023-12-07T10:00:13;3.80;88.50
82243;DHT22;71844;51.528;4.442;2023-12-07T10:02:42;3.90;88.40
82243;DHT22;71844;51.528;4.442;2023-12-07T10:05:10;4.00;88.00
82243;DHT22;71844;51.528;4.442;2023-12-07T10:07:41;4.10;88.30
82243;DHT22;71844;51.528;4.442;2023-12-07T10:10:08;4.30;88.80
82243;DHT22;71844;51.528;4.442;2023-12-07T10:15:16;5.20;88.70
82243;DHT22;71844;51.528;4.442;2023-12-07T10:20:16;6.00;87.30
82243;DHT22;71844;51.528;4.442;2023-12-07T10:22:45;6.10;85.50
82243;DHT22;71844;51.528;4.442;2023-12-07T10:25:12;6.00;85.40
82243;DHT22;71844;51.528;4.442;2023-12-07T10:27:41;6.00;85.80
82243;DHT22;71844;51.528;4.442;2023-12-07T10:30:10;5.90;85.30
82243;DHT22;71844;51.528;4.442;2023-12-07T10:32:39;6.00;86.10
82243;DHT22;71844;51.528;4.442;2023-12-07T10:35:07;6.20;86.50
82243;DHT22;71844;51.528;4.442;2023-12-07T10:37:34;6.80;86.80
82243;DHT22;71844;51.528;4.442;2023-12-07T10:40:02;7.50;86.40
82243;DHT22;71844;51.528;4.442;2023-12-07T10:42:33;8.30;84.00
82243;DHT22;71844;51.528;4.442;2023-12-07T10:45:04;8.70;82.50
82243;DHT22;71844;51.528;4.442;2023-12-07T10:47:36;9.20;82.60
82243;DHT22;71844;51.528;4.442;2023-12-07T10:50:07;9.70;81.80
82243;DHT22;71844;51.528;4.442;2023-12-07T10:52:44;10.00;80.20
82243;DHT22;71844;51.528;4.442;2023-12-07T10:55:21;9.80;79.10
82243;DHT22;71844;51.528;4.442;2023-12-07T10:57:53;9.40;79.40
82243;DHT22;71844;51.528;4.442;2023-12-07T11:00:21;9.10;79.80
82243;DHT22;71844;51.528;4.442;2023-12-07T11:03:10;9.00;80.80
82243;DHT22;71844;51.528;4.442;2023-12-07T11:05:38;9.20;81.10
82243;DHT22;71844;51.528;4.442;2023-12-07T11:08:09;9.50;80.90
82243;DHT22;71844;51.528;4.442;2023-12-07T11:10:48;9.90;80.60
82243;DHT22;71844;51.528;4.442;2023-12-07T11:13:27;10.40;79.20
82243;DHT22;71844;51.528;4.442;2023-12-07T11:15:56;10.90;77.40
82243;DHT22;71844;51.528;4.442;2023-12-07T11:18:26;11.30;76.50
82243;DHT22;71844;51.528;4.442;2023-12-07T11:20:55;11.70;75.60
82243;DHT22;71844;51.528;4.442;2023-12-07T11:23:22;11.70;74.10
82243;DHT22;71844;51.528;4.442;2023-12-07T11:25:52;11.50;73.40
82243;DHT22;71844;51.528;4.442;2023-12-07T11:28:37;11.40;73.70
82243;DHT22;71844;51.528;4.442;2023-12-07T11:31:08;11.40;72.80
82243;DHT22;71844;51.528;4.442;2023-12-07T11:33:38;11.70;72.80
82243;DHT22;71844;51.528;4.442;2023-12-07T11:36:10;11.80;71.60
82243;DHT22;71844;51.528;4.442;2023-12-07T11:38:37;11.90;70.80
82243;DHT22;71844;51.528;4.442;2023-12-07T11:41:05;11.80;69.80
82243;DHT22;71844;51.528;4.442;2023-12-07T11:46:02;11.20;69.40
82243;DHT22;71844;51.528;4.442;2023-12-07T11:48:29;10.90;69.10
82243;DHT22;71844;51.528;4.442;2023-12-07T11:51:07;10.50;68.70
82243;DHT22;71844;51.528;4.442;2023-12-07T11:53:38;10.10;67.40
82243;DHT22;71844;51.528;4.442;2023-12-07T11:56:07;9.60;69.40
82243;DHT22;71844;51.528;4.442;2023-12-07T11:58:35;9.50;69.90
82243;DHT22;71844;51.528;4.442;2023-12-07T12:01:07;9.40;70.00
82243;DHT22;71844;51.528;4.442;2023-12-07T12:03:35;9.50;69.60
82243;DHT22;71844;51.528;4.442;2023-12-07T12:06:04;9.80;69.70
82243;DHT22;71844;51.528;4.442;2023-12-07T12:08:32;10.20;68.60
82243;DHT22;71844;51.528;4.442;2023-12-07T12:10:59;10.40;68.50
82243;DHT22;71844;51.528;4.442;2023-12-07T12:13:31;10.60;67.80
82243;DHT22;71844;51.528;4.442;2023-12-07T12:16:00;10.60;67.40
82243;DHT22;71844;51.528;4.442;2023-12-07T12:18:32;10.60;67.10
82243;DHT22;71844;51.528;4.442;2023-12-07T12:21:00;10.50;66.80
82243;DHT22;71844;51.528;4.442;2023-12-07T12:23:27;10.50;67.20
82243;DHT22;71844;51.528;4.442;2023-12-07T12:25:56;10.50;66.40
82243;DHT22;71844;51.528;4.442;2023-12-07T12:28:24;10.50;66.40
82243;DHT22;71844;51.528;4.442;2023-12-07T12:30:51;10.40;66.00
82243;DHT22;71844;51.528;4.442;2023-12-07T12:33:19;10.10;66.30
82243;DHT22;71844;51.528;4.442;2023-12-07T12:35:46;9.70;66.00
82243;DHT22;71844;51.528;4.442;2023-12-07T12:38:13;9.20;66.20
82243;DHT22;71844;51.528;4.442;2023-12-07T12:40:54;8.80;67.20
82243;DHT22;71844;51.528;4.442;2023-12-07T12:43:21;8.50;67.60
82243;DHT22;71844;51.528;4.442;2023-12-07T12:45:51;8.30;68.10
82243;DHT22;71844;51.528;4.442;2023-12-07T12:48:32;8.00;68.10
82243;DHT22;71844;51.528;4.442;2023-12-07T12:51:07;7.80;68.60
82243;DHT22;71844;51.528;4.442;2023-12-07T12:53:34;7.60;68.70
82243;DHT22;71844;51.528;4.442;2023-12-07T12:56:03;7.40;69.20
82243;DHT22;71844;51.528;4.442;2023-12-07T12:58:30;7.30;69.30
82243;DHT22;71844;51.528;4.442;2023-12-07T13:00:58;7.20;69.50
82243;DHT22;71844;51.528;4.442;2023-12-07T13:03:25;7.10;69.70
82243;DHT22;71844;51.528;4.442;2023-12-07T13:05:52;7.00;69.80
82243;DHT22;71844;51.528;4.442;2023-12-07T13:08:20;6.90;70.00
82243;DHT22;71844;51.528;4.442;2023-12-07T13:10:47;6.90;70.20
82243;DHT22;71844;51.528;4.442;2023-12-07T13:13:14;6.80;70.20
82243;DHT22;71844;51.528;4.442;2023-12-07T13:15:42;6.80;70.60
82243;DHT22;71844;51.528;4.442;2023-12-07T13:18:09;6.80;70.80
82243;DHT22;71844;51.528;4.442;2023-12-07T13:20:36;6.80;70.80
82243;DHT22;71844;51.528;4.442;2023-12-07T13:23:05;6.80;70.70
82243;DHT22;71844;51.528;4.442;2023-12-07T13:25:33;6.90;70.40
82243;DHT22;71844;51.528;4.442;2023-12-07T13:28:02;6.90;70.70
82243;DHT22;71844;51.528;4.442;2023-12-07T13:30:31;6.90;70.40
82243;DHT22;71844;51.528;4.442;2023-12-07T13:33:02;6.80;70.50
82243;DHT22;71844;51.528;4.442;2023-12-07T13:35:47;6.80;70.50
82243;DHT22;71844;51.528;4.442;2023-12-07T13:38:14;6.80;70.80
82243;DHT22;71844;51.528;4.442;2023-12-07T13:40:41;6.70;70.70
82243;DHT22;71844;51.528;4.442;2023-12-07T13:43:08;6.70;70.80
82243;DHT22;71844;51.528;4.442;2023-12-07T13:45:38;6.70;70.60
82243;DHT22;71844;51.528;4.442;2023-12-07T13:48:05;6.60;70.90
82243;DHT22;71844;51.528;4.442;2023-12-07T13:50:32;6.50;71.00
82243;DHT22;71844;51.528;4.442;2023-12-07T13:52:59;6.50;71.10
82243;DHT22;71844;51.528;4.442;2023-12-07T13:55:25;6.40;71.20
82243;DHT22;71844;51.528;4.442;2023-12-07T13:57:52;6.40;71.30
82243;DHT22;71844;51.528;4.442;2023-12-07T14:00:20;6.40;71.40
82243;DHT22;71844;51.528;4.442;2023-12-07T14:02:47;6.40;71.40
82243;DHT22;71844;51.528;4.442;2023-12-07T14:05:15;6.30;71.40
82243;DHT22;71844;51.528;4.442;2023-12-07T14:07:45;6.30;71.40
82243;DHT22;71844;51.528;4.442;2023-12-07T14:10:13;6.20;71.50
82243;DHT22;71844;51.528;4.442;2023-12-07T14:12:42;6.20;71.50
82243;DHT22;71844;51.528;4.442;2023-12-07T14:15:10;6.20;71.70
82243;DHT22;71844;51.528;4.442;2023-12-07T14:17:37;6.20;71.70
82243;DHT22;71844;51.528;4.442;2023-12-07T14:20:18;6.10;71.70
82243;DHT22;71844;51.528;4.442;2023-12-07T14:23:07;6.10;71.60
82243;DHT22;71844;51.528;4.442;2023-12-07T14:25:35;6.00;71.70
82243;DHT22;71844;51.528;4.442;2023-12-07T14:28:02;6.00;71.80
82243;DHT22;71844;51.528;4.442;2023-12-07T14:30:29;5.90;71.90
82243;DHT22;71844;51.528;4.442;2023-12-07T14:32:56;5.90;71.90
82243;DHT22;71844;51.528;4.442;2023-12-07T14:35:23;5.90;71.90
82243;DHT22;71844;51.528;4.442;2023-12-07T14:37:50;5.80;72.10
82243;DHT22;71844;51.528;4.442;2023-12-07T14:40:19;5.80;72.20
82243;DHT22;71844;51.528;4.442;2023-12-07T14:42:46;5.70;72.10
82243;DHT22;71844;51.528;4.442;2023-12-07T14:45:13;5.70;72.20
82243;DHT22;71844;51.528;4.442;2023-12-07T14:47:42;5.70;72.20
82243;DHT22;71844;51.528;4.442;2023-12-07T14:52:37;5.60;72.10
82243;DHT22;71844;51.528;4.442;2023-12-07T14:55:05;5.60;72.20
82243;DHT22;71844;51.528;4.442;2023-12-07T14:57:32;5.50;72.20
82243;DHT22;71844;51.528;4.442;2023-12-07T15:00:00;5.50;72.30
82243;DHT22;71844;51.528;4.442;2023-12-07T15:02:27;5.50;72.30
82243;DHT22;71844;51.528;4.442;2023-12-07T15:05:00;5.40;72.30
82243;DHT22;71844;51.528;4.442;2023-12-07T15:07:27;5.40;72.40
82243;DHT22;71844;51.528;4.442;2023-12-07T15:09:54;5.30;72.50
82243;DHT22;71844;51.528;4.442;2023-12-07T15:12:21;5.30;72.60
82243;DHT22;71844;51.528;4.442;2023-12-07T15:14:54;5.20;72.60
82243;DHT22;71844;51.528;4.442;2023-12-07T15:17:28;5.10;72.60
82243;DHT22;71844;51.528;4.442;2023-12-07T15:19:55;5.10;72.80
82243;DHT22;71844;51.528;4.442;2023-12-07T15:22:22;5.00;72.90
82243;DHT22;71844;51.528;4.442;2023-12-07T15:24:49;5.00;73.00
82243;DHT22;71844;51.528;4.442;2023-12-07T15:27:16;5.00;73.00
82243;DHT22;71844;51.528;4.442;2023-12-07T15:29:43;5.00;73.20
82243;DHT22;71844;51.528;4.442;2023-12-07T15:32:16;4.90;73.10
82243;DHT22;71844;51.528;4.442;2023-12-07T15:34:43;4.90;73.30
82243;DHT22;71844;51.528;4.442;2023-12-07T15:37:10;4.90;73.40
82243;DHT22;71844;51.528;4.442;2023-12-07T15:42:11;4.90;73.30
82243;DHT22;71844;51.528;4.442;2023-12-07T15:44:38;4.80;73.30
82243;DHT22;71844;51.528;4.442;2023-12-07T15:47:06;4.80;73.40
82243;DHT22;71844;51.528;4.442;2023-12-07T15:49:33;4.80;73.50
82243;DHT22;71844;51.528;4.442;2023-12-07T15:52:06;4.80;73.40
82243;DHT22;71844;51.528;4.442;2023-12-07T15:54:33;4.80;73.40
82243;DHT22;71844;51.528;4.442;2023-12-07T15:57:06;4.80;73.50
82243;DHT22;71844;51.528;4.442;2023-12-07T15:59:35;4.80;73.60
82243;DHT22;71844;51.528;4.442;2023-12-07T16:02:03;4.80;73.60
82243;DHT22;71844;51.528;4.442;2023-12-07T16:04:31;4.80;73.60
82243;DHT22;71844;51.528;4.442;2023-12-07T16:07:04;4.80;73.60
82243;DHT22;71844;51.528;4.442;2023-12-07T16:09:36;4.80;73.60
82243;DHT22;71844;51.528;4.442;2023-12-07T16:12:05;4.80;73.70
82243;DHT22;71844;51.528;4.442;2023-12-07T16:14:34;4.80;73.70
82243;DHT22;71844;51.528;4.442;2023-12-07T16:17:01;4.70;73.70
82243;DHT22;71844;51.528;4.442;2023-12-07T16:19:29;4.70;73.70